createdAt,value
2017-12-01T00:01:31.410Z,55.40
2017-12-01T00:04:00.079Z,51.57
2017-12-01T00:06:29.542Z,62.33
2017-12-01T00:08:57.862Z,53.00
2017-12-01T00:11:26.142Z,52.40
2017-12-01T00:13:54.427Z,51.10
2017-12-01T00:16:23.149Z,58.20
2017-12-01T00:18:51.438Z,61.17
2017-12-01T00:21:19.722Z,57.00
2017-12-01T00:23:48.063Z,53.63
2017-12-01T00:26:16.346Z,54.10
2017-12-01T00:28:45.990Z,55.57
2017-12-01T00:31:15.700Z,58.20
2017-12-01T00:33:43.864Z,52.83
2017-12-01T00:36:12.958Z,54.37
2017-12-01T00:38:41.294Z,60.67
2017-12-01T00:41:10.347Z,64.57
2017-12-01T00:43:38.622Z,60.63
2017-12-01T00:46:08.462Z,65.77
2017-12-01T00:48:37.514Z,67.30
2017-12-01T00:51:06.931Z,60.83
2017-12-01T00:53:35.328Z,63.70
2017-12-01T00:56:03.567Z,64.63
2017-12-01T00:58:31.846Z,63.57
2017-12-01T01:01:00.171Z,60.37
2017-12-01T01:03:28.463Z,57.83
2017-12-01T01:05:56.761Z,58.20
2017-12-01T01:08:25.858Z,63.50
2017-12-01T01:10:54.537Z,55.90
2017-12-01T01:13:23.594Z,66.13
2017-12-01T01:15:51.938Z,65.17
2017-12-01T01:18:20.233Z,57.17
2017-12-01T01:20:48.515Z,60.80
2017-12-01T01:23:17.641Z,67.63
2017-12-01T01:25:45.913Z,56.70
2017-12-01T01:28:14.585Z,57.13
2017-12-01T01:30:42.914Z,57.60
2017-12-01T01:33:12.557Z,46.77
2017-12-01T01:35:40.731Z,49.53
2017-12-01T01:38:09.079Z,45.40
2017-12-01T01:40:37.351Z,36.40
2017-12-01T01:43:07.007Z,33.87
2017-12-01T01:45:35.614Z,41.50
2017-12-01T01:48:03.922Z,34.40
2017-12-01T01:50:32.206Z,37.90
2017-12-01T01:53:00.552Z,41.63
2017-12-01T01:55:28.833Z,37.13
2017-12-01T01:57:57.117Z,35.97
2017-12-01T02:00:25.875Z,35.87
2017-12-01T02:02:54.150Z,38.60
2017-12-01T02:05:22.426Z,41.77
2017-12-01T02:07:50.771Z,41.30
2017-12-01T02:10:20.196Z,45.43
2017-12-01T02:12:48.491Z,37.60
2017-12-01T02:15:16.842Z,41.40
2017-12-01T02:17:45.121Z,46.03
2017-12-01T02:20:13.413Z,50.63
2017-12-01T02:22:41.734Z,51.23
2017-12-01T02:25:11.333Z,51.30
2017-12-01T02:27:39.618Z,62.40
2017-12-01T02:30:08.356Z,60.27
2017-12-01T02:32:38.175Z,65.97
2017-12-01T02:35:06.449Z,58.63
2017-12-01T02:37:35.567Z,64.77
2017-12-01T02:40:03.981Z,54.23
2017-12-01T02:42:33.026Z,62.23
2017-12-01T02:45:01.379Z,63.93
2017-12-01T02:47:30.065Z,64.13
2017-12-01T02:49:58.342Z,74.77
2017-12-01T02:52:26.856Z,66.53
2017-12-01T02:54:55.136Z,72.17
2017-12-01T02:57:23.413Z,59.47
2017-12-01T02:59:52.505Z,59.60
2017-12-01T03:02:20.793Z,66.27
2017-12-01T03:04:49.099Z,59.00
2017-12-01T03:07:17.426Z,65.10
2017-12-01T03:09:45.710Z,65.13
2017-12-01T03:12:14.003Z,60.57
2017-12-01T03:14:42.456Z,63.97
2017-12-01T03:17:10.731Z,65.10
2017-12-01T03:19:39.407Z,58.77
2017-12-01T03:22:07.843Z,56.47
2017-12-01T03:24:36.133Z,53.27
2017-12-01T03:27:04.413Z,63.40
2017-12-01T03:29:33.877Z,49.83
2017-12-01T03:32:05.998Z,54.37
2017-12-01T03:34:34.317Z,62.47
2017-12-01T03:37:03.455Z,58.03
2017-12-01T03:39:32.511Z,54.67
2017-12-01T03:42:00.838Z,57.90
2017-12-01T03:44:29.131Z,56.33
2017-12-01T03:49:58.158Z,63.80
2017-12-01T03:52:27.582Z,59.17
2017-12-01T03:54:55.870Z,62.43
2017-12-01T03:57:24.220Z,65.23
2017-12-01T03:59:52.501Z,74.17
2017-12-01T04:02:21.551Z,64.67
2017-12-01T04:04:49.941Z,77.00
2017-12-01T04:07:18.982Z,68.27
2017-12-01T04:09:47.664Z,73.63
2017-12-01T04:12:16.006Z,58.13
2017-12-01T04:14:45.642Z,68.83
2017-12-01T04:17:14.193Z,60.10
2017-12-01T04:19:42.526Z,53.90
2017-12-01T04:22:10.824Z,58.07
2017-12-01T04:24:39.105Z,59.67
2017-12-01T04:27:07.439Z,59.43
2017-12-01T04:29:35.727Z,62.27
2017-12-01T04:32:04.011Z,50.93
2017-12-01T04:34:36.247Z,48.27
2017-12-01T04:37:04.924Z,44.20
2017-12-01T04:39:33.216Z,53.83
2017-12-01T04:42:01.542Z,47.20
2017-12-01T04:44:31.058Z,44.63
2017-12-01T04:46:59.338Z,48.23
2017-12-01T04:49:27.694Z,46.97
2017-12-01T04:51:55.991Z,40.97
2017-12-01T04:54:24.298Z,46.63
2017-12-01T04:56:52.628Z,49.20
2017-12-01T04:59:22.045Z,37.17
2017-12-01T05:01:51.673Z,35.77
2017-12-01T05:04:20.315Z,42.57
2017-12-01T05:06:49.347Z,36.20
2017-12-01T05:09:18.762Z,38.90
2017-12-01T05:11:47.088Z,39.40
2017-12-01T05:14:15.779Z,39.77
2017-12-01T05:16:45.417Z,40.33
2017-12-01T05:19:15.009Z,45.40
2017-12-01T05:21:43.954Z,44.47
2017-12-01T05:24:12.267Z,49.10
2017-12-01T05:26:40.601Z,49.00
2017-12-01T05:29:09.286Z,50.00
2017-12-01T05:31:37.572Z,60.37
2017-12-01T05:34:07.425Z,55.67
2017-12-01T05:36:35.722Z,49.27
2017-12-01T05:39:04.015Z,49.47
2017-12-01T05:41:33.841Z,46.37
2017-12-01T05:44:02.896Z,48.30
2017-12-01T05:46:31.202Z,51.33
2017-12-01T05:49:00.300Z,41.90
2017-12-01T05:51:28.570Z,40.07
2017-12-01T05:53:56.863Z,50.23
2017-12-01T05:56:25.226Z,44.50
2017-12-01T05:58:54.070Z,39.90
2017-12-01T06:01:22.751Z,36.87
2017-12-01T06:03:51.855Z,41.60
2017-12-01T06:06:20.136Z,44.57
2017-12-01T06:08:49.180Z,41.10
2017-12-01T06:11:17.507Z,51.30
2017-12-01T06:13:45.794Z,44.97
2017-12-01T06:16:14.070Z,49.67
2017-12-01T06:18:43.555Z,40.37
2017-12-01T06:21:11.834Z,45.30
2017-12-01T06:23:40.116Z,48.83
2017-12-01T06:26:08.441Z,44.73
2017-12-01T06:28:36.717Z,50.70
2017-12-01T06:31:06.527Z,47.83
2017-12-01T06:33:34.855Z,54.30
2017-12-01T06:36:04.646Z,55.10
2017-12-01T06:38:32.935Z,60.30
2017-12-01T06:41:01.263Z,59.67
2017-12-01T06:43:29.539Z,58.30
2017-12-01T06:45:57.822Z,54.37
2017-12-01T06:48:26.151Z,54.00
2017-12-01T06:50:54.433Z,59.43
2017-12-01T06:53:24.073Z,54.97
2017-12-01T06:55:53.427Z,50.67
2017-12-01T06:58:21.707Z,65.93
2017-12-01T07:00:50.020Z,69.37
2017-12-01T07:03:18.363Z,67.10
2017-12-01T07:05:47.790Z,60.80
2017-12-01T07:08:16.852Z,60.60
2017-12-01T07:10:45.186Z,62.10
2017-12-01T07:13:13.469Z,60.90
2017-12-01T07:15:42.534Z,58.97
2017-12-01T07:18:12.234Z,70.53
2017-12-01T07:20:41.530Z,75.23
2017-12-01T07:23:10.576Z,72.03
2017-12-01T07:25:39.306Z,76.47
2017-12-01T07:28:07.594Z,75.73
2017-12-01T07:30:35.882Z,83.33
2017-12-01T07:33:04.988Z,89.20
2017-12-01T07:35:33.273Z,81.17
2017-12-01T07:38:01.573Z,85.10
2017-12-01T07:40:31.407Z,81.77
2017-12-01T07:43:01.219Z,85.73
2017-12-01T07:45:32.162Z,92.63
2017-12-01T07:48:00.447Z,67.40
2017-12-01T07:50:28.729Z,72.97
2017-12-01T07:52:57.831Z,83.47
2017-12-01T07:55:26.883Z,73.10
2017-12-01T07:57:55.176Z,69.10
2017-12-01T08:00:24.643Z,77.60
2017-12-01T08:02:52.943Z,86.50
2017-12-01T08:05:21.622Z,84.90
2017-12-01T08:07:51.467Z,87.53
2017-12-01T08:13:20.902Z,78.67
2017-12-01T08:16:01.911Z,73.57
2017-12-01T08:18:42.782Z,85.80
2017-12-01T08:21:11.072Z,84.23
2017-12-01T08:23:51.283Z,74.27
2017-12-01T08:26:19.571Z,79.43
2017-12-01T08:28:47.858Z,82.57
2017-12-01T08:31:16.179Z,75.27
2017-12-01T08:33:44.467Z,82.50
2017-12-01T08:36:12.750Z,85.07
2017-12-01T08:38:42.011Z,87.33
2017-12-01T08:41:10.294Z,76.20
2017-12-01T08:43:38.570Z,76.10
2017-12-01T08:46:06.926Z,74.17
2017-12-01T08:48:35.210Z,65.17
2017-12-01T08:51:03.488Z,69.27
2017-12-01T08:53:32.139Z,74.77
2017-12-01T08:56:01.927Z,69.70
2017-12-01T08:58:31.347Z,66.60
2017-12-01T09:01:00.815Z,69.80
2017-12-01T09:03:29.107Z,71.30
2017-12-01T09:05:57.399Z,69.10
2017-12-01T09:08:26.122Z,72.37
2017-12-01T09:10:54.398Z,68.33
2017-12-01T09:13:23.443Z,71.03
2017-12-01T09:15:51.770Z,65.97
2017-12-01T09:18:20.046Z,68.57
2017-12-01T09:20:48.359Z,71.90
2017-12-01T09:23:16.699Z,63.93
2017-12-01T09:25:46.494Z,55.93
2017-12-01T09:28:14.776Z,68.93
2017-12-01T09:30:43.102Z,71.33
2017-12-01T09:33:11.382Z,63.10
2017-12-01T09:35:40.439Z,72.00
2017-12-01T09:38:08.761Z,71.50
2017-12-01T09:40:38.561Z,75.47
2017-12-01T09:43:06.863Z,62.67
2017-12-01T09:45:35.242Z,69.00
2017-12-01T09:48:03.514Z,72.87
2017-12-01T09:50:31.793Z,73.50
2017-12-01T09:53:01.250Z,66.07
2017-12-01T09:55:29.542Z,61.97
2017-12-01T09:57:58.587Z,62.00
2017-12-01T10:00:28.418Z,62.87
2017-12-01T10:02:56.703Z,57.93
2017-12-01T10:05:26.504Z,58.73
2017-12-01T10:07:54.867Z,56.40
2017-12-01T10:10:23.143Z,68.63
2017-12-01T10:12:52.194Z,64.50
2017-12-01T10:15:21.288Z,72.67
2017-12-01T10:17:50.331Z,68.07
2017-12-01T10:20:18.614Z,79.50
2017-12-01T10:22:46.933Z,72.07
2017-12-01T10:25:15.210Z,69.30
2017-12-01T10:27:44.849Z,73.03
2017-12-01T10:30:13.824Z,63.90
2017-12-01T10:32:47.883Z,62.73
2017-12-01T10:35:16.215Z,65.93
2017-12-01T10:37:44.497Z,73.20
2017-12-01T10:40:13.546Z,61.60
2017-12-01T10:42:41.893Z,52.30
2017-12-01T10:45:10.170Z,57.03
2017-12-01T10:47:38.445Z,52.33
2017-12-01T10:50:06.782Z,39.97
2017-12-01T10:52:35.066Z,47.83
2017-12-01T10:55:04.109Z,51.40
2017-12-01T10:57:32.829Z,46.50
2017-12-01T11:00:02.615Z,49.30
2017-12-01T11:02:31.659Z,50.70
2017-12-01T11:05:01.306Z,50.00
2017-12-01T11:07:30.350Z,67.13
2017-12-01T11:09:58.631Z,50.80
2017-12-01T11:12:26.963Z,53.40
2017-12-01T11:14:55.242Z,56.67
2017-12-01T11:17:23.514Z,59.33
2017-12-01T11:19:51.838Z,58.13
2017-12-01T11:22:20.128Z,60.90
2017-12-01T11:24:48.408Z,46.90
2017-12-01T11:27:17.505Z,45.40
2017-12-01T11:29:47.134Z,48.33
2017-12-01T11:32:16.438Z,44.27
2017-12-01T11:34:44.782Z,44.27
2017-12-01T11:37:13.066Z,49.03
2017-12-01T11:39:42.137Z,55.23
2017-12-01T11:42:10.467Z,47.33
2017-12-01T11:44:38.750Z,41.30
2017-12-01T11:47:07.032Z,42.33
2017-12-01T11:49:36.495Z,39.23
2017-12-01T11:52:04.782Z,36.60
2017-12-01T11:54:33.829Z,28.70
2017-12-01T11:57:03.666Z,33.50
2017-12-01T11:59:33.083Z,34.90
2017-12-01T12:02:01.368Z,29.37
2017-12-01T12:04:29.699Z,29.87
2017-12-01T12:06:57.977Z,28.90
2017-12-01T12:09:26.267Z,31.80
2017-12-01T12:11:54.590Z,36.73
2017-12-01T12:14:24.387Z,29.30
2017-12-01T12:16:52.666Z,32.20
2017-12-01T12:19:21.757Z,36.37
2017-12-01T12:21:50.034Z,33.00
2017-12-01T12:24:18.322Z,34.73
2017-12-01T12:26:46.657Z,29.60
2017-12-01T12:29:14.938Z,33.87
2017-12-01T12:31:43.226Z,29.80
2017-12-01T12:34:12.695Z,30.73
2017-12-01T12:36:40.978Z,31.67
2017-12-01T12:39:09.258Z,34.70
2017-12-01T12:41:37.586Z,34.27
2017-12-01T12:44:05.869Z,35.50
2017-12-01T12:46:34.137Z,31.17
2017-12-01T12:49:03.835Z,35.50
2017-12-01T12:51:31.992Z,28.77
2017-12-01T12:54:00.277Z,28.53
2017-12-01T12:56:29.450Z,29.83
2017-12-01T12:58:57.686Z,30.47
2017-12-01T13:01:26.743Z,34.07
2017-12-01T13:03:55.063Z,25.13
2017-12-01T13:06:23.333Z,26.30
2017-12-01T13:08:52.031Z,31.93
2017-12-01T13:11:21.726Z,26.60
2017-12-01T13:13:51.022Z,27.30
2017-12-01T13:16:20.443Z,29.57
2017-12-01T13:18:48.782Z,26.93
2017-12-01T13:21:17.074Z,27.00
2017-12-01T13:23:45.350Z,31.00
2017-12-01T13:26:13.686Z,26.10
2017-12-01T13:28:41.972Z,30.70
2017-12-01T13:31:11.390Z,31.90
2017-12-01T13:33:39.713Z,25.60
2017-12-01T13:36:07.990Z,26.50
2017-12-01T13:38:36.274Z,23.90
2017-12-01T13:41:04.608Z,24.27
2017-12-01T13:43:33.655Z,25.10
2017-12-01T13:46:01.935Z,24.20
2017-12-01T13:48:30.598Z,24.70
2017-12-01T13:51:00.237Z,26.30
2017-12-01T13:53:28.401Z,28.80
2017-12-01T13:55:58.243Z,29.20
2017-12-01T13:58:26.521Z,29.43
2017-12-01T14:00:54.830Z,29.40
2017-12-01T14:03:23.170Z,29.70
2017-12-01T14:05:52.595Z,28.50
2017-12-01T14:08:20.874Z,27.60
2017-12-01T14:10:49.226Z,26.97
2017-12-01T14:13:17.514Z,28.30
2017-12-01T14:15:47.143Z,33.63
2017-12-01T14:18:16.693Z,33.07
2017-12-01T14:20:45.986Z,29.87
2017-12-01T14:23:14.265Z,30.73
2017-12-01T14:25:42.610Z,34.20
2017-12-01T14:28:11.658Z,28.67
2017-12-01T14:30:41.447Z,35.90
2017-12-01T14:33:09.774Z,34.30
2017-12-01T14:35:38.850Z,38.83
2017-12-01T14:38:07.918Z,36.23
2017-12-01T14:40:36.282Z,44.27
2017-12-01T14:43:04.567Z,41.97
2017-12-01T14:45:32.862Z,28.03
2017-12-01T14:48:01.971Z,42.10
2017-12-01T14:50:31.082Z,37.40
2017-12-01T14:52:59.379Z,28.70
2017-12-01T14:55:29.227Z,32.77
2017-12-01T14:57:57.392Z,32.70
2017-12-01T15:00:25.690Z,34.23
2017-12-01T15:02:54.020Z,30.90
2017-12-01T15:05:22.315Z,29.93
2017-12-01T15:07:51.362Z,26.83
2017-12-01T15:10:19.717Z,27.27
2017-12-01T15:12:48.010Z,27.30
2017-12-01T15:15:16.296Z,25.00
2017-12-01T15:17:44.642Z,27.83
2017-12-01T15:20:12.939Z,24.30
2017-12-01T15:22:41.208Z,28.80
2017-12-01T15:25:10.297Z,27.20
2017-12-01T15:27:38.600Z,27.00
2017-12-01T15:30:06.877Z,32.93
2017-12-01T15:32:35.349Z,28.63
2017-12-01T15:35:04.401Z,31.13
2017-12-01T15:37:33.455Z,33.93
2017-12-01T15:40:01.785Z,33.20
2017-12-01T15:42:30.243Z,25.90
2017-12-01T15:44:58.999Z,30.80
2017-12-01T15:47:27.329Z,28.03
2017-12-01T15:49:55.693Z,28.63
2017-12-01T15:52:25.237Z,28.57
2017-12-01T15:54:53.566Z,26.13
2017-12-01T15:57:21.889Z,29.00
2017-12-01T15:59:51.753Z,29.40
2017-12-01T16:02:20.709Z,36.90
2017-12-01T16:04:49.198Z,30.97
2017-12-01T16:07:18.639Z,28.40
2017-12-01T16:09:46.977Z,37.77
2017-12-01T16:12:15.395Z,29.07
2017-12-01T16:14:43.682Z,38.33
2017-12-01T16:17:12.202Z,33.33
2017-12-01T16:19:53.146Z,30.07
2017-12-01T16:22:23.157Z,38.27
2017-12-01T16:24:52.301Z,35.17
2017-12-01T16:27:21.179Z,29.97
2017-12-01T16:29:49.684Z,34.47
2017-12-01T16:32:19.122Z,32.10
2017-12-01T16:34:47.433Z,34.27
2017-12-01T16:37:15.791Z,35.80
2017-12-01T16:39:44.190Z,32.97
2017-12-01T16:42:13.830Z,36.10
2017-12-01T16:44:42.830Z,34.37
2017-12-01T16:47:11.902Z,39.83
2017-12-01T16:49:40.312Z,34.27
2017-12-01T16:52:08.666Z,39.80
2017-12-01T16:54:37.077Z,40.47
2017-12-01T16:57:06.879Z,42.07
2017-12-01T16:59:35.325Z,36.27
2017-12-01T17:02:04.403Z,37.30
2017-12-01T17:04:32.690Z,34.53
2017-12-01T17:07:02.374Z,34.33
2017-12-01T17:09:30.687Z,37.67
2017-12-01T17:11:59.730Z,41.93
2017-12-01T17:14:28.482Z,37.07
2017-12-01T17:16:56.897Z,50.60
2017-12-01T17:19:25.190Z,43.93
2017-12-01T17:21:53.996Z,50.50
2017-12-01T17:24:22.332Z,50.23
2017-12-01T17:26:50.692Z,37.77
2017-12-01T17:29:19.803Z,45.63
2017-12-01T17:31:48.090Z,50.17
2017-12-01T17:34:16.433Z,42.40
2017-12-01T17:36:46.378Z,45.77
2017-12-01T17:39:15.436Z,47.37
2017-12-01T17:41:44.130Z,48.50
2017-12-01T17:44:12.594Z,38.63
2017-12-01T17:46:41.407Z,40.80
2017-12-01T17:49:09.770Z,45.20
2017-12-01T17:51:38.183Z,46.53
2017-12-01T17:54:07.014Z,48.00
2017-12-01T17:56:35.459Z,41.87
2017-12-01T17:59:03.878Z,43.10
2017-12-01T18:01:32.997Z,46.53
2017-12-01T18:04:01.287Z,42.37
2017-12-01T18:06:29.767Z,41.47
2017-12-01T18:08:58.076Z,45.30
2017-12-01T18:11:26.381Z,46.87
2017-12-01T18:13:55.503Z,43.83
2017-12-01T18:16:24.187Z,53.07
2017-12-01T18:18:54.350Z,52.40
2017-12-01T18:21:23.321Z,58.80
2017-12-01T18:23:51.615Z,54.13
2017-12-01T18:26:20.299Z,55.13
2017-12-01T18:28:48.630Z,52.40
2017-12-01T18:31:18.289Z,53.07
2017-12-01T18:33:46.455Z,47.20
2017-12-01T18:36:14.876Z,43.70
2017-12-01T18:38:44.294Z,44.77
2017-12-01T18:41:12.985Z,43.20
2017-12-01T18:43:42.668Z,44.73
2017-12-01T18:46:11.253Z,40.00
2017-12-01T18:48:40.293Z,43.93
2017-12-01T18:51:09.442Z,44.33
2017-12-01T18:53:37.748Z,43.70
2017-12-01T18:56:06.056Z,44.90
2017-12-01T18:58:34.401Z,47.13
2017-12-01T19:01:03.486Z,44.50
2017-12-01T19:03:31.776Z,43.80
2017-12-01T19:06:00.135Z,49.27
2017-12-01T19:08:28.827Z,50.30
2017-12-01T19:10:57.109Z,49.50
2017-12-01T19:13:25.463Z,49.10
2017-12-01T19:15:54.570Z,46.60
2017-12-01T19:18:22.853Z,56.33
2017-12-01T19:20:51.193Z,51.27
2017-12-01T19:23:20.982Z,48.23
2017-12-01T19:25:49.285Z,52.40
2017-12-01T19:28:17.650Z,49.07
2017-12-01T19:30:45.938Z,45.43
2017-12-01T19:33:14.237Z,58.87
2017-12-01T19:35:42.620Z,43.77
2017-12-01T19:38:11.943Z,49.47
2017-12-01T19:40:41.984Z,52.30
2017-12-01T19:43:10.400Z,51.17
2017-12-01T19:45:38.763Z,50.60
2017-12-01T19:48:08.493Z,48.10
2017-12-01T19:50:37.065Z,50.13
2017-12-01T19:53:06.212Z,48.53
2017-12-01T19:55:34.566Z,56.20
2017-12-01T19:58:03.660Z,54.30
2017-12-01T20:00:32.800Z,50.57
2017-12-01T20:03:01.234Z,59.80
2017-12-01T20:05:29.655Z,55.27
2017-12-01T20:07:58.730Z,49.90
2017-12-01T20:10:27.087Z,54.30
2017-12-01T20:12:56.897Z,61.95
2017-12-01T20:15:25.183Z,61.50
2017-12-01T20:17:53.522Z,55.17
2017-12-01T20:20:21.889Z,57.87
2017-12-01T20:25:50.194Z,50.95
2017-12-01T20:28:18.510Z,54.90
2017-12-01T20:30:46.831Z,51.93
2017-12-01T20:33:15.162Z,56.58
2017-12-01T20:35:43.479Z,56.40
2017-12-01T20:38:11.851Z,58.20
2017-12-01T20:40:41.558Z,55.45
2017-12-01T20:43:11.214Z,60.25
2017-12-01T20:45:40.759Z,61.00
2017-12-01T20:48:09.072Z,57.70
2017-12-01T20:50:38.838Z,64.72
2017-12-01T20:53:07.032Z,53.95
2017-12-01T20:55:35.380Z,55.15
2017-12-01T20:58:03.666Z,55.75
2017-12-01T21:00:31.958Z,63.58
2017-12-01T21:03:00.471Z,66.45
2017-12-01T21:05:29.574Z,62.88
2017-12-01T21:07:57.863Z,65.80
2017-12-01T21:10:27.205Z,56.25
2017-12-01T21:12:55.510Z,67.45
2017-12-01T21:15:24.577Z,56.33
2017-12-01T21:17:52.935Z,64.55
2017-12-01T21:20:21.230Z,60.35
2017-12-01T21:22:50.298Z,64.57
2017-12-01T21:25:18.639Z,75.32
2017-12-01T21:27:46.927Z,59.95
2017-12-01T21:30:16.594Z,64.82
2017-12-01T21:32:45.210Z,68.80
2017-12-01T21:35:13.502Z,65.65
2017-12-01T21:37:41.804Z,59.10
2017-12-01T21:40:10.146Z,70.43
2017-12-01T21:42:38.458Z,60.08
2017-12-01T21:45:06.754Z,62.85
2017-12-01T21:47:35.100Z,61.78
2017-12-01T21:50:04.151Z,66.70
2017-12-01T21:52:32.434Z,56.60
2017-12-01T21:55:00.768Z,55.83
2017-12-01T21:57:29.054Z,54.53
2017-12-01T21:59:58.487Z,51.72
2017-12-01T22:02:27.237Z,64.22
2017-12-01T22:04:55.541Z,57.90
2017-12-01T22:07:23.831Z,62.20
2017-12-01T22:09:52.210Z,61.05
2017-12-01T22:12:20.490Z,66.35
2017-12-01T22:14:50.138Z,69.22
2017-12-01T22:17:18.742Z,58.58
2017-12-01T22:19:47.790Z,62.50
2017-12-01T22:22:16.083Z,65.97
2017-12-01T22:24:45.315Z,60.05
2017-12-01T22:27:13.611Z,61.30
2017-12-01T22:29:41.901Z,59.90
2017-12-01T22:32:14.835Z,55.38
2017-12-01T22:34:43.118Z,51.33
2017-12-01T22:37:11.414Z,52.08
2017-12-01T22:39:40.538Z,57.58
2017-12-01T22:42:10.187Z,60.17
2017-12-01T22:44:39.121Z,58.05
2017-12-01T22:47:08.222Z,51.37
2017-12-01T22:49:36.571Z,61.70
2017-12-01T22:52:04.822Z,59.63
2017-12-01T22:54:34.309Z,66.45
2017-12-01T22:57:02.599Z,65.53
2017-12-01T22:59:30.881Z,66.37
2017-12-01T23:01:59.205Z,60.00
2017-12-01T23:04:27.488Z,65.12
2017-12-01T23:06:55.769Z,68.05
2017-12-01T23:09:25.615Z,64.03
2017-12-01T23:11:55.253Z,70.00
2017-12-01T23:14:23.823Z,88.93
2017-12-01T23:16:52.162Z,79.95
2017-12-01T23:19:21.587Z,70.95
2017-12-01T23:21:50.633Z,69.43
2017-12-01T23:24:19.730Z,80.38
2017-12-01T23:26:49.164Z,84.18
2017-12-01T23:29:17.850Z,85.80
2017-12-01T23:31:46.202Z,82.22
2017-12-01T23:34:14.490Z,76.57
2017-12-01T23:36:42.779Z,86.37
2017-12-01T23:39:12.249Z,80.55
2017-12-01T23:41:40.530Z,84.43
2017-12-01T23:44:08.818Z,81.10
2017-12-01T23:46:38.513Z,112.20
2017-12-01T23:49:07.442Z,85.53
2017-12-01T23:51:35.723Z,120.22
2017-12-01T23:54:04.071Z,95.95
2017-12-01T23:56:33.137Z,105.90
2017-12-01T23:59:02.199Z,143.90
